Arctic Village Airport Arctic Village US
ICAO: PARC
IATA:
Category: Medium
Scheduled Services:

Elevation: 2092 ft
TransAlt. 18000 ft.

Airport Communications:
ANCHORAGE CNTR:135
AWOS 3:135.75
CTAF:122.9
FAIRBANKS RDO:122.1

PARC Zoom In..

Runways:

(A) RW 02 length 4500 ft width 75 ft
---- / hdg 19

(B) RW 20 length 4500 ft width 75 ft
---- / hdg 199

Location; PARC
Day. 15 / Time. 22.56 Zulu
* Altimeter: 29.64
* Temperature: 16° c. 60.8°f.
* Wind from: 120° Speed 10 kn with Gusts up to 16 kn.
Dewpoint: 06° c.
Visibility: 10 Statute Miles.
Clouds: Few 5500 ft.
Clouds: Scattered 9000 ft.

PARC 152256Z AUTO 12010G16KT 10SM FEW055 SCT090 16/06 A2964 RMK AO2 SLP062 T01610056


Wind From 120°
Speed 10 kn.

 
 
jpsmedia.com for Web Design worldairports.se 2018   terms of use